• Join FlightAware (Why Join?)
  • Login
  • US Flag GB Flag 
08:32 EDT


 

Airport Tracker/Info


-or-


 

Live Flight TrackerFlight Track Log ✈ SWA2166 ✈ 09-Apr-2013 ✈ KBHM - KHOU

Flight Track Log - Related Links

Times and Time Zones

All times are in EDT time to prevent confusion due to time zone crossing. See the SWA2166 flight status page for this flight to view local times or setup timezone preferences in your user account.

Time Position Orientation Groundspeed Altitude Reporting Facility
EDT Latitude Longitude Course Direction KTS MPH feet Rate Location/Type
19:14 33.5486 -86.7831 232° Southwest 151 174 1,900  Level Atlanta Center
19:15 33.5442 -86.7978 250° West 152 175 2,800 2,580 Climbing Atlanta Center
19:16 33.5178 -86.8619 244° Southwest 233 268 5,300 2,760 Climbing Atlanta Center
19:17 33.4661 -86.9275 227° Southwest 269 310 8,400 2,820 Climbing Atlanta Center
19:17 33.4469 -86.9467 220° Southwest 265 305 9,400 1,200 Climbing Atlanta Center
19:18 33.3950 -87.0169 228° Southwest 290 334 10,200 2,580 Climbing Atlanta Center
19:20 33.1113 -87.4083 232° Southwest  Level FlightAware Approximate
19:20 33.2739 -87.1944 231° Southwest 342 394 17,200  Level Atlanta Center
19:21 33.2108 -87.2864 231° Southwest 362 417 20,800 3,300 Climbing Atlanta Center
19:22 33.1517 -87.3958 237° Southwest 373 429 23,800 2,700 Climbing Atlanta Center
19:24 32.9958 -87.6797 237° Southwest 414 476 30,200 2,460 Climbing Memphis Center
19:25 32.9294 -87.8031 237° Southwest 425 489 32,300 1,860 Climbing Memphis Center
19:26 32.8775 -87.9083 240° Southwest 431 496 34,000 1,140 Climbing Memphis Center
19:27 32.8192 -88.0311 241° Southwest 426 490 34,600 1,440 Climbing Memphis Center
19:28 32.7778 -88.1608 249° West 426 490 36,900 2,100 Climbing Memphis Center
19:29 32.7361 -88.2828 248° West 421 484 38,900 1,500 Climbing Memphis Center
19:30 32.7003 -88.4044 251° West 410 472 40,000 540 Climbing Memphis Center
19:31 32.6544 -88.5364 248° West 410 472 40,000  Level Memphis Center
19:32 32.6142 -88.6556 248° West 405 466 40,000  Level Memphis Center
19:33 32.5742 -88.7794 249° West 400 460 40,000  Level Memphis Center
19:34 32.5339 -88.8986 248° West 395 455 40,000  Level Memphis Center
19:35 32.4936 -89.0200 249° West 395 455 40,000  Level Memphis Center
19:36 32.4508 -89.1436 248° West 395 455 40,000  Level Memphis Center
19:37 32.4125 -89.2647 249° West 395 455 40,000  Level Memphis Center
19:38 32.3717 -89.3858 248° West 395 455 40,000  Level Memphis Center
19:39 32.3286 -89.5067 247° West 400 460 40,000  Level Memphis Center
19:40 32.2897 -89.6275 249° West 400 460 40,000  Level Memphis Center
19:41 32.2467 -89.7506 248° West 400 460 40,000  Level Memphis Center
19:42 32.2053 -89.8711 248° West 400 460 40,000  Level Memphis Center
19:43 32.1619 -89.9942 247° West 400 460 40,000  Level Memphis Center
19:44 32.1206 -90.1169 248° West 400 460 40,000  Level Memphis Center
19:45 32.0769 -90.2397 247° West 400 460 40,000  Level Memphis Center
19:46 32.0331 -90.3622 247° West 400 460 40,000  Level Memphis Center
19:47 31.9914 -90.4847 248° West 400 460 40,000  Level Memphis Center
19:50 31.9072 -90.7278 248° West 402 463 40,000  Level Houston Center
19:51 31.8675 -90.8431 248° West 400 460 40,000  Level Houston Center
19:52 31.8169 -90.9881 248° West 399 459 40,000  Level Houston Center
19:53 31.7722 -91.1089 247° West 402 463 40,000  Level Houston Center
19:54 31.7281 -91.2311 247° West 405 466 40,000  Level Houston Center
19:55 31.6847 -91.3544 248° West 406 467 40,000  Level Houston Center
19:56 31.6417 -91.4739 247° West 397 457 40,000  Level Houston Center
19:57 31.5992 -91.5897 247° West 387 445 40,000  Level Houston Center
19:58 31.5492 -91.7286 247° West 385 443 40,000  Level Houston Center
19:59 31.5078 -91.8428 247° West 382 440 40,000  Level Houston Center
20:00 31.4656 -91.9569 247° West 381 438 40,000  Level Houston Center
20:01 31.4219 -92.0731 246° West 382 440 40,000  Level Houston Center
20:02 31.3803 -92.1875 247° West 382 440 40,000  Level Houston Center
20:03 31.3383 -92.3028 247° West 385 443 40,000  Level Houston Center
20:04 31.2944 -92.4172 246° West 386 444 40,000  Level Houston Center
20:05 31.2522 -92.5303 246° West 382 440 40,000  Level Houston Center
20:06 31.2028 -92.6683 247° West 385 443 40,000  Level Houston Center
20:07 31.1606 -92.7811 246° West 379 436 40,000  Level Houston Center
20:08 31.1175 -92.8939 246° West 380 437 40,000  Level Houston Center
20:09 31.0764 -93.0086 247° West 384 442 40,000  Level Houston Center
20:10 31.0336 -93.1217 246° West 384 442 40,000  Level Houston Center
20:11 30.9917 -93.2347 247° West 382 440 40,000  Level Houston Center
20:12 30.9486 -93.3464 246° West 381 438 40,000  Level Houston Center
20:13 30.8978 -93.4803 246° West 379 436 40,000  Level Houston Center
20:14 30.8544 -93.5925 246° West 381 438 40,000 -900 Level Houston Center
20:15 30.8117 -93.7031 246° West 379 436 38,200 -1,980 Descending Houston Center
20:16 30.7700 -93.8142 246° West 379 436 36,000 -2,460 Descending Houston Center
20:17 30.7247 -93.9294 245° Southwest 394 453 33,200 -1,500 Descending Houston Center
20:18 30.6794 -94.0478 246° West 402 463 33,000 -120 Descending Houston Center
20:19 30.6408 -94.1869 252° West 390 449 33,000 -1,260 Level Houston Center
20:20 30.6411 -94.3094 270° West 383 441 30,500 -1,860 Descending Houston Center
20:21 30.6428 -94.4411 271° West 410 472 29,200 -3,540 Descending Houston Center
20:22 30.5656 -94.5533 231° Southwest 422 486 23,300 -4,740 Descending Houston Center
20:23 30.4778 -94.6400 220° Southwest 414 476 19,500 -3,600 Descending Houston Center
20:24 30.4278 -94.6908 221° Southwest 390 449 17,500 -2,880 Descending Houston Center
20:25 30.4056 -94.7128 220° Southwest 392 451 16,600 -3,420 Descending Houston Center
20:25 30.3317 -94.7853 220° Southwest 366 421 13,400 -3,240 Descending Houston Center
20:26 30.3281 -94.7894 225° Southwest 371 427 13,300 -360 Descending Houston Center
20:26 30.2592 -94.8842 230° Southwest 361 415 13,000 -900 Descending Houston Center
20:27 30.2042 -94.9683 233° Southwest 360 414 11,700 -1,140 Descending Houston Center
20:28 30.1931 -94.9872 236° Southwest 354 407 11,700 -660 Level Houston Center
20:29 30.1419 -95.0606 231° Southwest 298 343 10,900 -840 Descending Houston Center
20:29 30.0914 -95.0889 206° Southwest 229 264 10,300 -600 Descending Houston Center
20:30 30.0828 -95.0933 204° Southwest 237 273 10,300 -360 Level Houston Center
20:30 30.0392 -95.1122 201° Southwest 217 250 10,000 -240 Descending Houston Center
20:31 30.0258 -95.1181 201° Southwest 219 252 10,100  Climbing Houston Center
20:31 29.9886 -95.1353 202° Southwest 220 253 10,000  Descending Houston Center
20:32 29.9692 -95.1428 198° South 218 251 10,100 -480 Climbing Houston Center
20:32 29.9239 -95.1625 201° Southwest 222 255 9,500 -720 Descending Houston Center
20:33 29.9103 -95.1678 199° South 224 258 9,400 -1,140 Descending Houston Center
20:33 29.8717 -95.1858 202° Southwest 218 251 8,500 -1,380 Descending Houston Center
20:34 29.8433 -95.1969 199° South 216 249 8,000 -1,200 Descending Houston Center
20:34 29.8150 -95.2094 201° Southwest 211 243 7,300 -1,260 Descending Houston Center
20:35 29.7878 -95.2208 200° South 214 246 6,700 -1,200 Descending Houston Center
20:35 29.7564 -95.2336 199° South 213 245 6,100 -720 Descending Houston Center
20:36 29.7331 -95.2444 202° Southwest 212 244 6,000 -120 Descending Houston Center
20:36 29.7025 -95.2667 212° Southwest 215 247 6,000  Level Houston Center
20:37 29.6847 -95.2822 217° Southwest 214 246 6,000 -600 Level Houston Center
20:37 29.6558 -95.3058 215° Southwest 215 247 5,400 -1,080 Descending Houston Center
20:38 29.6364 -95.3222 216° Southwest 217 250 4,900 -1,200 Descending Houston Center
20:38 29.6317 -95.3642 263° West 260 299 4,200 -900 Descending Houston Center
20:39 29.6394 -95.3964 286° West 251 289 4,000 -300 Descending Houston Center
20:39 29.6700 -95.4364 311° West 260 299 3,900 -420 Descending Houston Center
20:40 29.6967 -95.4700 312° West 257 296 3,600 -720 Descending Houston Center
20:40 29.7175 -95.4981 311° West 243 280 3,200 -720 Descending Houston Center
20:41 29.7494 -95.5056 348° North 250 288 2,900 -240 Descending Houston Center
20:41 29.7731 -95.4842 38° Northeast 223 257 3,000 -420 Climbing Houston Center
20:42 29.7978 -95.4611 39° Northeast 229 264 2,500 -1,020 Descending Houston Center
20:42 29.7856 -95.4394 123° Southeast 165 190 2,000 -600 Descending Houston Center
20:43 29.7667 -95.4231 143° Southeast 191 220 1,900  Descending Houston Center
20:43 29.7514 -95.4075 139° Southeast 145 167 2,000 60 Climbing Houston Center
20:44 29.7389 -95.3914 132° Southeast 160 184 2,000  Level Houston Center
20:44 29.7275 -95.3767 132° Southeast 141 162 2,000 -300 Level Houston Center
20:45 29.7119 -95.3586 135° Southeast 147 169 1,700 -600 Descending Houston Center
20:45 29.6992 -95.3439 135° Southeast 139 160 1,400 -600 Descending Houston Center
20:46 29.6869 -95.3286 133° Southeast 139 160 1,100 -540 Descending Houston Center
20:46 29.6756 -95.3156 135° Southeast 113 130 800 -780 Descending Houston Center
20:47 29.6603 -95.2967 133° Southeast 126 145 300 -420 Descending Houston Center
20:48 29.6383 -95.2711 135° Southeast 123 142 100 -240 Descending Houston Center